AIQ519 VTBD-VHHH
Flight info
| Callsign | AIQ519 |
|---|---|
| Flight time | N/A |
| Altitude | 37000 |
| Route | ROBKA3A ROBKA A1 SANOT Y15 GUROK A202 VILAO/K0820F370 A202 ASSAD/K0820S1130 A202 SAMAS/K0667S0630 A202 SIKOU/N0440F370 V571 CANTO |
| Aircraft | A320/M-SDE3FGHIRWY/LB1 |
Departure
| Time | 2026-04-30 13:50 |
|---|---|
| Airport | Don Mueang International Airport (VTBD) |
Arrival
| Time | N/A |
|---|---|
| Airport | Hong Kong International Airport (VHHH) |
| Time | Latitude | Longitude | Altitude | Speed | Heading |
|---|---|---|---|---|---|
| 2026-04-30 13:34 | 13.91908 | 100.60319 | 18 ft | 0 kts | 208° |
| 2026-04-30 13:41 | 13.91930 | 100.60333 | 19 ft | 4 kts | 217° |
| 2026-04-30 13:41 | 13.91950 | 100.60351 | 19 ft | 4 kts | 233° |
| 2026-04-30 13:41 | 13.91961 | 100.60374 | 19 ft | 4 kts | 275° |
| 2026-04-30 13:42 | 13.91953 | 100.60395 | 18 ft | 4 kts | 300° |
| 2026-04-30 13:42 | 13.91940 | 100.60419 | 19 ft | 4 kts | 298° |
| 2026-04-30 13:42 | 13.91916 | 100.60462 | 17 ft | 4 kts | 299° |
| 2026-04-30 13:43 | 13.91903 | 100.60487 | 18 ft | 4 kts | 299° |
| 2026-04-30 13:43 | 13.91890 | 100.60511 | 20 ft | 3 kts | 298° |
| 2026-04-30 13:43 | 13.91877 | 100.60532 | 19 ft | 4 kts | 330° |
| 2026-04-30 13:43 | 13.91859 | 100.60531 | 20 ft | 4 kts | 27° |
| 2026-04-30 13:44 | 13.91836 | 100.60518 | 20 ft | 4 kts | 29° |
| 2026-04-30 13:44 | 13.91826 | 100.60513 | 17 ft | 0 kts | 28° |
| 2026-04-30 13:46 | 13.91827 | 100.60513 | 20 ft | 1 kts | 28° |
| 2026-04-30 13:46 | 13.91852 | 100.60528 | 17 ft | 7 kts | 34° |
| 2026-04-30 13:46 | 13.91852 | 100.60586 | 19 ft | 11 kts | 105° |
| 2026-04-30 13:46 | 13.91912 | 100.60646 | 17 ft | 15 kts | 28° |
| 2026-04-30 13:47 | 13.92022 | 100.60708 | 18 ft | 20 kts | 29° |
| 2026-04-30 13:47 | 13.92151 | 100.60780 | 18 ft | 22 kts | 28° |
| 2026-04-30 13:47 | 13.92290 | 100.60858 | 20 ft | 24 kts | 28° |
| 2026-04-30 13:47 | 13.92445 | 100.60944 | 17 ft | 26 kts | 28° |
| 2026-04-30 13:48 | 13.92601 | 100.61031 | 17 ft | 16 kts | 29° |
| 2026-04-30 13:48 | 13.92640 | 100.61115 | 17 ft | 15 kts | 115° |
| 2026-04-30 13:48 | 13.92565 | 100.61194 | 16 ft | 15 kts | 173° |
| 2026-04-30 13:48 | 13.92517 | 100.61174 | 16 ft | 0 kts | 208° |
| 2026-04-30 13:49 | 13.92506 | 100.61168 | 16 ft | 10 kts | 208° |
| 2026-04-30 13:49 | 13.92213 | 100.61004 | 18 ft | 83 kts | 208° |
| 2026-04-30 13:50 | 13.91531 | 100.60622 | 15 ft | 138 kts | 208° |
| 2026-04-30 13:50 | 13.89393 | 100.59422 | 406 ft | 193 kts | 206° |
| 2026-04-30 13:50 | 13.88209 | 100.58774 | 1055 ft | 191 kts | 205° |
| 2026-04-30 13:51 | 13.87026 | 100.58098 | 1565 ft | 202 kts | 214° |
| 2026-04-30 13:51 | 13.86166 | 100.56903 | 1824 ft | 225 kts | 245° |
| 2026-04-30 13:51 | 13.85645 | 100.55290 | 2116 ft | 250 kts | 253° |
| 2026-04-30 13:51 | 13.85209 | 100.53488 | 2622 ft | 266 kts | 256° |
| 2026-04-30 13:52 | 13.84788 | 100.51615 | 3383 ft | 271 kts | 256° |
| 2026-04-30 13:52 | 13.84353 | 100.49718 | 4169 ft | 274 kts | 255° |
| 2026-04-30 13:52 | 13.83645 | 100.47894 | 4920 ft | 277 kts | 234° |
| 2026-04-30 13:52 | 13.82397 | 100.46390 | 5715 ft | 277 kts | 226° |
| 2026-04-30 13:53 | 13.81071 | 100.44944 | 6546 ft | 278 kts | 225° |
| 2026-04-30 13:53 | 13.79722 | 100.43504 | 7304 ft | 280 kts | 223° |
| 2026-04-30 13:53 | 13.78117 | 100.42359 | 7838 ft | 284 kts | 202° |
| 2026-04-30 13:53 | 13.76194 | 100.41934 | 8392 ft | 286 kts | 181° |
| 2026-04-30 13:54 | 13.74206 | 100.42099 | 9160 ft | 288 kts | 173° |
| 2026-04-30 13:54 | 13.72231 | 100.42330 | 9888 ft | 291 kts | 174° |
| 2026-04-30 13:54 | 13.70187 | 100.42530 | 10345 ft | 304 kts | 175° |
| 2026-04-30 13:54 | 13.68026 | 100.42912 | 10489 ft | 327 kts | 163° |
| 2026-04-30 13:55 | 13.65917 | 100.43963 | 10685 ft | 347 kts | 145° |
| 2026-04-30 13:55 | 13.64159 | 100.45705 | 11164 ft | 356 kts | 127° |
| 2026-04-30 13:55 | 13.62982 | 100.47958 | 11746 ft | 362 kts | 110° |
| 2026-04-30 13:55 | 13.62424 | 100.50496 | 12359 ft | 366 kts | 101° |
| 2026-04-30 13:56 | 13.61968 | 100.53082 | 12946 ft | 369 kts | 101° |
| 2026-04-30 13:56 | 13.61520 | 100.55694 | 13521 ft | 373 kts | 99° |
| 2026-04-30 13:56 | 13.61411 | 100.58371 | 14040 ft | 378 kts | 87° |
| 2026-04-30 13:56 | 13.61751 | 100.61060 | 14563 ft | 381 kts | 82° |
| 2026-04-30 13:57 | 13.62149 | 100.63726 | 15073 ft | 384 kts | 82° |
| 2026-04-30 13:57 | 13.62549 | 100.66447 | 15581 ft | 387 kts | 82° |
| 2026-04-30 13:57 | 13.62948 | 100.69194 | 16050 ft | 391 kts | 82° |
| 2026-04-30 13:57 | 13.63351 | 100.71966 | 16523 ft | 394 kts | 82° |
| 2026-04-30 13:58 | 13.63759 | 100.74765 | 17011 ft | 397 kts | 82° |
| 2026-04-30 13:58 | 13.64580 | 100.80417 | 17963 ft | 403 kts | 82° |
| 2026-04-30 13:58 | 13.64997 | 100.83279 | 18395 ft | 406 kts | 82° |
| 2026-04-30 13:59 | 13.65416 | 100.86156 | 18791 ft | 408 kts | 82° |
| 2026-04-30 13:59 | 13.65831 | 100.89014 | 19178 ft | 411 kts | 82° |
| 2026-04-30 13:59 | 13.66254 | 100.91926 | 19574 ft | 413 kts | 82° |
| 2026-04-30 13:59 | 13.66891 | 100.94817 | 19949 ft | 417 kts | 72° |
| 2026-04-30 14:00 | 13.68039 | 100.97559 | 20347 ft | 419 kts | 61° |
| 2026-04-30 14:00 | 13.71498 | 101.02425 | 21092 ft | 425 kts | 51° |
| 2026-04-30 14:00 | 13.73352 | 101.04802 | 21475 ft | 427 kts | 51° |
| 2026-04-30 14:01 | 13.75217 | 101.07194 | 21845 ft | 429 kts | 51° |
| 2026-04-30 14:01 | 13.77087 | 101.09596 | 22236 ft | 431 kts | 51° |
| 2026-04-30 14:01 | 13.78968 | 101.12014 | 22584 ft | 434 kts | 51° |
| 2026-04-30 14:01 | 13.80859 | 101.14443 | 22959 ft | 436 kts | 51° |
| 2026-04-30 14:02 | 13.82735 | 101.16853 | 23295 ft | 439 kts | 51° |
| 2026-04-30 14:02 | 13.84643 | 101.19308 | 23615 ft | 441 kts | 51° |
| 2026-04-30 14:02 | 13.86561 | 101.21780 | 23912 ft | 443 kts | 51° |
| 2026-04-30 14:02 | 13.88512 | 101.24239 | 24184 ft | 445 kts | 47° |
| 2026-04-30 14:03 | 13.90766 | 101.26420 | 24487 ft | 445 kts | 37° |
| 2026-04-30 14:03 | 13.93344 | 101.28187 | 24762 ft | 446 kts | 28° |
| 2026-04-30 14:03 | 13.96086 | 101.29707 | 25055 ft | 448 kts | 27° |
| 2026-04-30 14:03 | 13.98836 | 101.31237 | 25309 ft | 450 kts | 27° |
| 2026-04-30 14:04 | 14.01597 | 101.32779 | 25589 ft | 452 kts | 27° |
| 2026-04-30 14:04 | 14.04361 | 101.34327 | 25860 ft | 454 kts | 27° |
| 2026-04-30 14:04 | 14.07140 | 101.35884 | 26129 ft | 455 kts | 27° |
| 2026-04-30 14:04 | 14.09930 | 101.37449 | 26418 ft | 457 kts | 27° |
| 2026-04-30 14:05 | 14.12677 | 101.39026 | 26678 ft | 460 kts | 31° |
| 2026-04-30 14:05 | 14.15239 | 101.41008 | 26929 ft | 463 kts | 41° |
| 2026-04-30 14:05 | 14.17432 | 101.43445 | 27185 ft | 466 kts | 52° |
| 2026-04-30 14:05 | 14.19182 | 101.46263 | 27439 ft | 469 kts | 62° |
| 2026-04-30 14:06 | 14.20440 | 101.49372 | 27677 ft | 472 kts | 70° |
| 2026-04-30 14:06 | 14.22627 | 101.55773 | 28159 ft | 476 kts | 70° |
| 2026-04-30 14:07 | 14.24848 | 101.62227 | 28620 ft | 479 kts | 70° |
| 2026-04-30 14:07 | 14.25967 | 101.65472 | 28827 ft | 481 kts | 70° |
| 2026-04-30 14:07 | 14.27088 | 101.68729 | 29050 ft | 483 kts | 70° |
| 2026-04-30 14:08 | 14.29323 | 101.75243 | 29456 ft | 488 kts | 70° |
| 2026-04-30 14:08 | 14.30457 | 101.78554 | 29630 ft | 491 kts | 70° |
| 2026-04-30 14:08 | 14.32735 | 101.85209 | 30096 ft | 493 kts | 70° |
| 2026-04-30 14:09 | 14.33873 | 101.88540 | 30361 ft | 492 kts | 70° |
| 2026-04-30 14:09 | 14.35005 | 101.91869 | 30622 ft | 492 kts | 70° |
| 2026-04-30 14:09 | 14.37265 | 101.98522 | 31147 ft | 491 kts | 70° |
| 2026-04-30 14:10 | 14.38393 | 102.01842 | 31414 ft | 490 kts | 70° |
| 2026-04-30 14:10 | 14.39524 | 102.05159 | 31683 ft | 490 kts | 70° |
| 2026-04-30 14:10 | 14.40665 | 102.08473 | 31904 ft | 490 kts | 69° |
| 2026-04-30 14:10 | 14.41804 | 102.11742 | 32159 ft | 491 kts | 70° |
| 2026-04-30 14:11 | 14.42938 | 102.15060 | 32423 ft | 490 kts | 70° |
| 2026-04-30 14:11 | 14.44057 | 102.18381 | 32712 ft | 490 kts | 70° |
| 2026-04-30 14:11 | 14.45177 | 102.21706 | 32964 ft | 490 kts | 69° |
| 2026-04-30 14:11 | 14.46323 | 102.25010 | 33233 ft | 490 kts | 70° |
| 2026-04-30 14:12 | 14.47451 | 102.28326 | 33486 ft | 490 kts | 70° |
| 2026-04-30 14:12 | 14.48563 | 102.31645 | 33759 ft | 490 kts | 70° |
| 2026-04-30 14:12 | 14.49671 | 102.34965 | 34011 ft | 489 kts | 70° |
| 2026-04-30 14:12 | 14.50407 | 102.37162 | 34170 ft | 489 kts | 70° |
| 2026-04-30 14:13 | 14.51900 | 102.41589 | 34513 ft | 488 kts | 70° |
| 2026-04-30 14:13 | 14.53017 | 102.44881 | 34842 ft | 484 kts | 70° |
| 2026-04-30 14:13 | 14.54129 | 102.48156 | 35120 ft | 483 kts | 70° |
| 2026-04-30 14:13 | 14.55239 | 102.51424 | 35360 ft | 482 kts | 70° |
| 2026-04-30 14:14 | 14.56326 | 102.54642 | 35584 ft | 481 kts | 70° |
| 2026-04-30 14:14 | 14.57422 | 102.57901 | 35804 ft | 481 kts | 70° |
| 2026-04-30 14:14 | 14.58519 | 102.61156 | 36005 ft | 480 kts | 70° |
| 2026-04-30 14:14 | 14.59618 | 102.64410 | 36230 ft | 480 kts | 70° |
| 2026-04-30 14:15 | 14.60720 | 102.67661 | 36438 ft | 479 kts | 70° |
| 2026-04-30 14:15 | 14.61817 | 102.70901 | 36636 ft | 478 kts | 70° |
| 2026-04-30 14:15 | 14.62911 | 102.74141 | 36833 ft | 478 kts | 70° |
| 2026-04-30 14:15 | 14.64000 | 102.77382 | 37024 ft | 478 kts | 70° |
| 2026-04-30 14:16 | 14.65090 | 102.80628 | 37160 ft | 479 kts | 70° |
| 2026-04-30 14:16 | 14.66182 | 102.83881 | 37295 ft | 480 kts | 70° |
| 2026-04-30 14:16 | 14.67275 | 102.87134 | 37457 ft | 480 kts | 70° |
| 2026-04-30 14:16 | 14.68370 | 102.90387 | 37627 ft | 479 kts | 70° |
| 2026-04-30 14:17 | 14.69449 | 102.93595 | 37821 ft | 479 kts | 70° |
| 2026-04-30 14:17 | 14.70537 | 102.96842 | 37976 ft | 479 kts | 70° |
| 2026-04-30 14:17 | 14.71622 | 103.00093 | 38142 ft | 479 kts | 70° |
| 2026-04-30 14:17 | 14.72707 | 103.03343 | 38305 ft | 478 kts | 70° |
| 2026-04-30 14:18 | 14.73794 | 103.06592 | 38457 ft | 478 kts | 70° |
| 2026-04-30 14:18 | 14.74882 | 103.09833 | 38618 ft | 478 kts | 70° |
| 2026-04-30 14:18 | 14.77055 | 103.16308 | 38898 ft | 477 kts | 70° |
| 2026-04-30 14:19 | 14.80300 | 103.26020 | 38935 ft | 480 kts | 71° |
| 2026-04-30 14:20 | 14.82469 | 103.32540 | 38937 ft | 480 kts | 71° |
| 2026-04-30 14:20 | 14.85984 | 103.42209 | 38931 ft | 479 kts | 60° |
| 2026-04-30 14:21 | 14.89878 | 103.47739 | 38932 ft | 476 kts | 47° |
| 2026-04-30 14:22 | 14.96359 | 103.55550 | 38926 ft | 478 kts | 48° |
| 2026-04-30 14:22 | 15.02814 | 103.63375 | 38930 ft | 479 kts | 48° |
| 2026-04-30 14:23 | 15.11478 | 103.73880 | 38938 ft | 480 kts | 48° |
| 2026-04-30 14:24 | 15.16306 | 103.78581 | 38940 ft | 476 kts | 31° |
| 2026-04-30 14:24 | 15.19154 | 103.80301 | 38937 ft | 472 kts | 22° |
| 2026-04-30 14:25 | 15.31238 | 103.85627 | 38935 ft | 473 kts | 20° |
| 2026-04-30 14:26 | 15.40320 | 103.89625 | 38923 ft | 480 kts | 20° |
| 2026-04-30 14:27 | 15.49635 | 103.93712 | 38927 ft | 488 kts | 20° |
| 2026-04-30 14:27 | 15.55912 | 103.96475 | 38943 ft | 491 kts | 19° |
| 2026-04-30 14:28 | 15.65332 | 104.00627 | 38928 ft | 490 kts | 19° |
| 2026-04-30 14:28 | 15.71564 | 104.03377 | 38931 ft | 490 kts | 19° |
| 2026-04-30 14:29 | 15.83115 | 104.08463 | 38946 ft | 491 kts | 19° |
| 2026-04-30 14:31 | 15.99906 | 104.15879 | 38950 ft | 494 kts | 18° |
| 2026-04-30 14:31 | 16.05988 | 104.19271 | 38950 ft | 503 kts | 34° |
| 2026-04-30 14:31 | 16.08619 | 104.21684 | 38940 ft | 507 kts | 44° |
| 2026-04-30 14:32 | 16.15717 | 104.29796 | 38960 ft | 508 kts | 45° |
| 2026-04-30 14:33 | 16.20471 | 104.35233 | 38962 ft | 508 kts | 45° |
| 2026-04-30 14:33 | 16.27605 | 104.43391 | 38975 ft | 508 kts | 44° |
| 2026-04-30 14:34 | 16.32339 | 104.48860 | 38970 ft | 509 kts | 45° |
| 2026-04-30 14:34 | 16.37057 | 104.54350 | 38970 ft | 509 kts | 45° |
| 2026-04-30 14:35 | 16.44096 | 104.62563 | 38981 ft | 509 kts | 45° |
| 2026-04-30 14:36 | 16.48823 | 104.68064 | 38982 ft | 509 kts | 45° |
| 2026-04-30 14:36 | 16.53553 | 104.73561 | 39002 ft | 509 kts | 45° |
| 2026-04-30 14:37 | 16.57911 | 104.79379 | 38999 ft | 511 kts | 54° |
| 2026-04-30 14:37 | 16.61750 | 104.85606 | 38994 ft | 510 kts | 54° |
| 2026-04-30 14:38 | 16.65566 | 104.91829 | 38995 ft | 509 kts | 54° |
| 2026-04-30 14:38 | 16.69361 | 104.97994 | 38986 ft | 508 kts | 54° |
| 2026-04-30 14:39 | 16.73191 | 105.04195 | 38990 ft | 508 kts | 54° |
| 2026-04-30 14:39 | 16.77010 | 105.10402 | 38996 ft | 508 kts | 54° |
| 2026-04-30 14:40 | 16.82728 | 105.19724 | 39005 ft | 508 kts | 55° |
| 2026-04-30 14:40 | 16.86503 | 105.25887 | 39012 ft | 506 kts | 55° |
| 2026-04-30 14:41 | 16.90282 | 105.32072 | 39005 ft | 504 kts | 55° |
| 2026-04-30 14:41 | 16.94049 | 105.38237 | 39013 ft | 503 kts | 55° |
| 2026-04-30 14:42 | 16.97816 | 105.44386 | 39012 ft | 502 kts | 55° |
| 2026-04-30 14:42 | 17.01568 | 105.50530 | 39019 ft | 501 kts | 55° |
| 2026-04-30 14:43 | 17.05309 | 105.56670 | 39017 ft | 501 kts | 55° |
| 2026-04-30 14:43 | 17.09022 | 105.62770 | 39016 ft | 501 kts | 55° |
| 2026-04-30 14:44 | 17.12760 | 105.68909 | 39041 ft | 500 kts | 55° |
| 2026-04-30 14:44 | 17.16495 | 105.75044 | 39039 ft | 500 kts | 55° |
| 2026-04-30 14:45 | 17.20211 | 105.81177 | 39047 ft | 499 kts | 55° |
| 2026-04-30 14:45 | 17.23931 | 105.87304 | 39045 ft | 499 kts | 55° |
| 2026-04-30 14:46 | 17.27648 | 105.93424 | 39071 ft | 498 kts | 55° |
| 2026-04-30 14:46 | 17.30731 | 105.98509 | 39065 ft | 498 kts | 56° |
| 2026-04-30 14:47 | 17.35038 | 106.05638 | 39061 ft | 499 kts | 56° |
| 2026-04-30 14:47 | 17.38756 | 106.11768 | 39075 ft | 499 kts | 55° |
| 2026-04-30 14:48 | 17.42522 | 106.17873 | 39089 ft | 499 kts | 54° |
| 2026-04-30 14:48 | 17.46304 | 106.23965 | 39089 ft | 499 kts | 54° |
| 2026-04-30 14:49 | 17.50049 | 106.30033 | 39082 ft | 499 kts | 55° |
| 2026-04-30 14:49 | 17.53803 | 106.36148 | 39073 ft | 499 kts | 55° |
| 2026-04-30 14:50 | 17.59435 | 106.45330 | 39072 ft | 499 kts | 55° |
| 2026-04-30 14:51 | 17.64442 | 106.53480 | 39066 ft | 499 kts | 55° |
| 2026-04-30 14:52 | 17.70071 | 106.62674 | 39075 ft | 500 kts | 55° |
| 2026-04-30 14:52 | 17.75686 | 106.71885 | 39080 ft | 499 kts | 55° |
| 2026-04-30 14:53 | 17.81259 | 106.81059 | 39072 ft | 499 kts | 55° |
| 2026-04-30 14:54 | 17.88728 | 106.93357 | 39070 ft | 499 kts | 56° |
| 2026-04-30 14:55 | 17.94348 | 107.02566 | 39071 ft | 499 kts | 55° |
| 2026-04-30 14:56 | 18.01834 | 107.14814 | 39071 ft | 500 kts | 55° |
| 2026-04-30 14:57 | 18.07468 | 107.24055 | 39067 ft | 501 kts | 55° |
| 2026-04-30 14:58 | 18.14956 | 107.36414 | 39071 ft | 501 kts | 56° |
| 2026-04-30 14:58 | 18.20558 | 107.45647 | 39058 ft | 502 kts | 56° |
| 2026-04-30 15:00 | 18.29921 | 107.61137 | 39070 ft | 502 kts | 56° |
| 2026-04-30 15:01 | 18.38012 | 107.73046 | 39082 ft | 499 kts | 48° |
| 2026-04-30 15:01 | 18.44626 | 107.81442 | 39071 ft | 499 kts | 48° |
| 2026-04-30 15:02 | 18.49051 | 107.87066 | 39070 ft | 498 kts | 48° |
| 2026-04-30 15:03 | 18.60094 | 108.01120 | 39085 ft | 498 kts | 48° |
| 2026-04-30 15:04 | 18.71075 | 108.15128 | 39063 ft | 497 kts | 48° |
| 2026-04-30 15:06 | 18.82066 | 108.29182 | 39059 ft | 497 kts | 48° |
| 2026-04-30 15:07 | 18.90845 | 108.40440 | 39061 ft | 497 kts | 48° |
| 2026-04-30 15:08 | 18.99601 | 108.51665 | 39059 ft | 497 kts | 48° |
| 2026-04-30 15:08 | 19.06377 | 108.59910 | 39188 ft | 493 kts | 40° |
| 2026-04-30 15:09 | 19.10958 | 108.65298 | 39013 ft | 492 kts | 51° |
| 2026-04-30 15:10 | 19.19102 | 108.76993 | 39021 ft | 495 kts | 49° |
| 2026-04-30 15:11 | 19.32343 | 108.93829 | 39046 ft | 499 kts | 48° |
| 2026-04-30 15:13 | 19.43314 | 109.08102 | 39064 ft | 500 kts | 48° |
| 2026-04-30 15:14 | 19.58690 | 109.28134 | 39065 ft | 503 kts | 49° |
| 2026-04-30 15:17 | 19.78405 | 109.54123 | 39069 ft | 503 kts | 49° |
| 2026-04-30 15:19 | 19.95888 | 109.77265 | 39071 ft | 503 kts | 49° |